RAM982 GMMN-LPPT
Flight info
| Callsign | RAM982 |
|---|---|
| Flight time | 1h 14m |
| Altitude | 32000 |
| Route | LAKAM UR722 AMSEL DCT VATZI |
| Aircraft | B738/M-SDE2E3FGHIRWXY/LB1 |
Departure
| Time | 2026-04-29 09:28 |
|---|---|
| Airport | Mohammed V International Airport (GMMN) |
Arrival
| Time | 2026-04-29 10:42 |
|---|---|
| Airport | Lisbon Humberto Delgado Airport (LPPT) |
| Time | Latitude | Longitude | Altitude | Speed | Heading |
|---|---|---|---|---|---|
| 2026-04-29 08:48 | 33.37612 | -7.58327 | 656 ft | 0 kts | 122° |
| 2026-04-29 09:12 | 33.37621 | -7.58344 | 652 ft | 2 kts | 122° |
| 2026-04-29 09:13 | 33.37630 | -7.58360 | 656 ft | 2 kts | 129° |
| 2026-04-29 09:13 | 33.37641 | -7.58374 | 657 ft | 2 kts | 137° |
| 2026-04-29 09:13 | 33.37651 | -7.58389 | 654 ft | 2 kts | 125° |
| 2026-04-29 09:13 | 33.37660 | -7.58404 | 657 ft | 2 kts | 124° |
| 2026-04-29 09:14 | 33.37669 | -7.58420 | 656 ft | 2 kts | 124° |
| 2026-04-29 09:14 | 33.37680 | -7.58435 | 655 ft | 2 kts | 138° |
| 2026-04-29 09:14 | 33.37692 | -7.58447 | 653 ft | 2 kts | 152° |
| 2026-04-29 09:14 | 33.37700 | -7.58451 | 654 ft | 0 kts | 165° |
| 2026-04-29 09:17 | 33.37695 | -7.58449 | 654 ft | 2 kts | 165° |
| 2026-04-29 09:18 | 33.37671 | -7.58443 | 656 ft | 6 kts | 168° |
| 2026-04-29 09:18 | 33.37616 | -7.58438 | 652 ft | 9 kts | 178° |
| 2026-04-29 09:18 | 33.37554 | -7.58421 | 652 ft | 9 kts | 163° |
| 2026-04-29 09:18 | 33.37494 | -7.58401 | 652 ft | 9 kts | 164° |
| 2026-04-29 09:19 | 33.37436 | -7.58382 | 652 ft | 9 kts | 165° |
| 2026-04-29 09:19 | 33.37379 | -7.58364 | 654 ft | 8 kts | 165° |
| 2026-04-29 09:19 | 33.37324 | -7.58345 | 654 ft | 8 kts | 163° |
| 2026-04-29 09:19 | 33.37269 | -7.58327 | 652 ft | 9 kts | 164° |
| 2026-04-29 09:20 | 33.37190 | -7.58300 | 652 ft | 14 kts | 164° |
| 2026-04-29 09:20 | 33.37086 | -7.58266 | 652 ft | 16 kts | 165° |
| 2026-04-29 09:20 | 33.36977 | -7.58232 | 652 ft | 16 kts | 174° |
| 2026-04-29 09:20 | 33.36922 | -7.58332 | 654 ft | 15 kts | 256° |
| 2026-04-29 09:21 | 33.36887 | -7.58448 | 653 ft | 15 kts | 227° |
| 2026-04-29 09:21 | 33.36791 | -7.58444 | 652 ft | 14 kts | 162° |
| 2026-04-29 09:21 | 33.36699 | -7.58411 | 653 ft | 14 kts | 164° |
| 2026-04-29 09:21 | 33.36594 | -7.58376 | 652 ft | 18 kts | 164° |
| 2026-04-29 09:22 | 33.36464 | -7.58332 | 652 ft | 20 kts | 165° |
| 2026-04-29 09:22 | 33.36329 | -7.58288 | 651 ft | 20 kts | 165° |
| 2026-04-29 09:22 | 33.36201 | -7.58247 | 654 ft | 19 kts | 165° |
| 2026-04-29 09:22 | 33.36075 | -7.58206 | 651 ft | 18 kts | 160° |
| 2026-04-29 09:23 | 33.35955 | -7.58157 | 654 ft | 18 kts | 164° |
| 2026-04-29 09:23 | 33.35838 | -7.58117 | 651 ft | 17 kts | 163° |
| 2026-04-29 09:23 | 33.35725 | -7.58079 | 651 ft | 17 kts | 164° |
| 2026-04-29 09:23 | 33.35616 | -7.58046 | 651 ft | 16 kts | 181° |
| 2026-04-29 09:24 | 33.35559 | -7.58144 | 651 ft | 15 kts | 255° |
| 2026-04-29 09:24 | 33.35549 | -7.58187 | 650 ft | 0 kts | 254° |
| 2026-04-29 09:25 | 33.35549 | -7.58189 | 650 ft | 1 kts | 254° |
| 2026-04-29 09:26 | 33.35538 | -7.58236 | 649 ft | 12 kts | 254° |
| 2026-04-29 09:26 | 33.35524 | -7.58347 | 646 ft | 12 kts | 285° |
| 2026-04-29 09:26 | 33.35572 | -7.58383 | 645 ft | 0 kts | 343° |
| 2026-04-29 09:27 | 33.35571 | -7.58383 | 645 ft | 0 kts | 343° |
| 2026-04-29 09:27 | 33.35605 | -7.58394 | 645 ft | 21 kts | 345° |
| 2026-04-29 09:27 | 33.35996 | -7.58532 | 645 ft | 94 kts | 344° |
| 2026-04-29 09:28 | 33.36832 | -7.58824 | 655 ft | 154 kts | 341° |
| 2026-04-29 09:28 | 33.37921 | -7.59221 | 1201 ft | 161 kts | 343° |
| 2026-04-29 09:28 | 33.38975 | -7.59566 | 2107 ft | 156 kts | 343° |
| 2026-04-29 09:28 | 33.40071 | -7.59946 | 2614 ft | 171 kts | 337° |
| 2026-04-29 09:29 | 33.41228 | -7.60611 | 2942 ft | 199 kts | 327° |
| 2026-04-29 09:29 | 33.43616 | -7.62872 | 3519 ft | 236 kts | 311° |
| 2026-04-29 09:29 | 33.44640 | -7.64414 | 3991 ft | 245 kts | 302° |
| 2026-04-29 09:30 | 33.45597 | -7.66168 | 4522 ft | 257 kts | 300° |
| 2026-04-29 09:30 | 33.46549 | -7.67949 | 5487 ft | 249 kts | 300° |
| 2026-04-29 09:30 | 33.47488 | -7.69689 | 6364 ft | 249 kts | 300° |
| 2026-04-29 09:30 | 33.48443 | -7.71445 | 7069 ft | 254 kts | 300° |
| 2026-04-29 09:31 | 33.49416 | -7.73226 | 7778 ft | 257 kts | 301° |
| 2026-04-29 09:31 | 33.50404 | -7.75028 | 8489 ft | 260 kts | 301° |
| 2026-04-29 09:31 | 33.51407 | -7.76853 | 9233 ft | 264 kts | 301° |
| 2026-04-29 09:31 | 33.52424 | -7.78702 | 9959 ft | 268 kts | 301° |
| 2026-04-29 09:32 | 33.53453 | -7.80572 | 10662 ft | 269 kts | 301° |
| 2026-04-29 09:32 | 33.54484 | -7.82446 | 11406 ft | 270 kts | 301° |
| 2026-04-29 09:32 | 33.55518 | -7.84330 | 12149 ft | 271 kts | 302° |
| 2026-04-29 09:32 | 33.56558 | -7.86221 | 12915 ft | 273 kts | 303° |
| 2026-04-29 09:33 | 33.57892 | -7.87853 | 13635 ft | 278 kts | 327° |
| 2026-04-29 09:33 | 33.59682 | -7.88774 | 14263 ft | 286 kts | 342° |
| 2026-04-29 09:33 | 33.61708 | -7.89005 | 14419 ft | 313 kts | 5° |
| 2026-04-29 09:33 | 33.63956 | -7.88507 | 14616 ft | 336 kts | 10° |
| 2026-04-29 09:34 | 33.66308 | -7.87854 | 14767 ft | 358 kts | 11° |
| 2026-04-29 09:34 | 33.68794 | -7.87140 | 15030 ft | 374 kts | 11° |
| 2026-04-29 09:34 | 33.71356 | -7.86411 | 15579 ft | 381 kts | 11° |
| 2026-04-29 09:34 | 33.73951 | -7.85689 | 16242 ft | 384 kts | 10° |
| 2026-04-29 09:35 | 33.76567 | -7.84978 | 16903 ft | 388 kts | 10° |
| 2026-04-29 09:35 | 33.79213 | -7.84269 | 17506 ft | 392 kts | 9° |
| 2026-04-29 09:35 | 33.81893 | -7.83558 | 18102 ft | 396 kts | 9° |
| 2026-04-29 09:35 | 33.84599 | -7.82844 | 18637 ft | 400 kts | 9° |
| 2026-04-29 09:36 | 33.87332 | -7.82123 | 19160 ft | 404 kts | 9° |
| 2026-04-29 09:36 | 33.90085 | -7.81397 | 19705 ft | 407 kts | 9° |
| 2026-04-29 09:36 | 33.92861 | -7.80665 | 20232 ft | 411 kts | 9° |
| 2026-04-29 09:36 | 33.95663 | -7.79925 | 20746 ft | 414 kts | 9° |
| 2026-04-29 09:37 | 33.98491 | -7.79176 | 21282 ft | 417 kts | 8° |
| 2026-04-29 09:37 | 34.01339 | -7.78422 | 21803 ft | 420 kts | 8° |
| 2026-04-29 09:37 | 34.04171 | -7.77671 | 22285 ft | 424 kts | 8° |
| 2026-04-29 09:37 | 34.07100 | -7.76894 | 22775 ft | 427 kts | 8° |
| 2026-04-29 09:38 | 34.10016 | -7.76118 | 23257 ft | 431 kts | 8° |
| 2026-04-29 09:38 | 34.12953 | -7.75337 | 23688 ft | 434 kts | 8° |
| 2026-04-29 09:38 | 34.15875 | -7.74561 | 24078 ft | 437 kts | 8° |
| 2026-04-29 09:38 | 34.18861 | -7.73831 | 24475 ft | 437 kts | 2° |
| 2026-04-29 09:39 | 34.21879 | -7.73769 | 24861 ft | 434 kts | 352° |
| 2026-04-29 09:39 | 34.24896 | -7.74013 | 25282 ft | 435 kts | 351° |
| 2026-04-29 09:39 | 34.27920 | -7.74308 | 25675 ft | 437 kts | 350° |
| 2026-04-29 09:39 | 34.30963 | -7.74598 | 26035 ft | 440 kts | 351° |
| 2026-04-29 09:40 | 34.34032 | -7.74865 | 26386 ft | 443 kts | 351° |
| 2026-04-29 09:40 | 34.37118 | -7.75108 | 26750 ft | 446 kts | 351° |
| 2026-04-29 09:40 | 34.40225 | -7.75337 | 27102 ft | 449 kts | 351° |
| 2026-04-29 09:40 | 34.43350 | -7.75557 | 27444 ft | 451 kts | 352° |
| 2026-04-29 09:41 | 34.46496 | -7.75775 | 27780 ft | 454 kts | 352° |
| 2026-04-29 09:41 | 34.49656 | -7.75993 | 28130 ft | 456 kts | 351° |
| 2026-04-29 09:41 | 34.51763 | -7.76139 | 28353 ft | 458 kts | 351° |
| 2026-04-29 09:41 | 34.54951 | -7.76361 | 28676 ft | 460 kts | 351° |
| 2026-04-29 09:42 | 34.59238 | -7.76660 | 29170 ft | 461 kts | 351° |
| 2026-04-29 09:42 | 34.62445 | -7.76884 | 29632 ft | 460 kts | 351° |
| 2026-04-29 09:42 | 34.65635 | -7.77105 | 30112 ft | 458 kts | 351° |
| 2026-04-29 09:42 | 34.68815 | -7.77326 | 30499 ft | 457 kts | 351° |
| 2026-04-29 09:43 | 34.71985 | -7.77550 | 30875 ft | 456 kts | 351° |
| 2026-04-29 09:43 | 34.75149 | -7.77776 | 31296 ft | 455 kts | 350° |
| 2026-04-29 09:43 | 34.78304 | -7.78024 | 31700 ft | 453 kts | 349° |
| 2026-04-29 09:43 | 34.80382 | -7.78199 | 31930 ft | 452 kts | 349° |
| 2026-04-29 09:44 | 34.87786 | -7.78838 | 31963 ft | 457 kts | 349° |
| 2026-04-29 09:44 | 34.94092 | -7.79365 | 31956 ft | 451 kts | 349° |
| 2026-04-29 09:45 | 34.99292 | -7.79797 | 31971 ft | 451 kts | 349° |
| 2026-04-29 09:45 | 35.06586 | -7.80406 | 31974 ft | 453 kts | 349° |
| 2026-04-29 09:46 | 35.12881 | -7.80930 | 31958 ft | 454 kts | 349° |
| 2026-04-29 09:46 | 35.19179 | -7.81454 | 31959 ft | 454 kts | 349° |
| 2026-04-29 09:47 | 35.25485 | -7.81979 | 31983 ft | 454 kts | 349° |
| 2026-04-29 09:47 | 35.31792 | -7.82505 | 31961 ft | 454 kts | 349° |
| 2026-04-29 09:48 | 35.37022 | -7.82940 | 31956 ft | 453 kts | 349° |
| 2026-04-29 09:48 | 35.43312 | -7.83471 | 31959 ft | 452 kts | 349° |
| 2026-04-29 09:49 | 35.49579 | -7.84040 | 31958 ft | 451 kts | 349° |
| 2026-04-29 09:49 | 35.56901 | -7.84710 | 31958 ft | 451 kts | 349° |
| 2026-04-29 09:50 | 35.62102 | -7.85181 | 31954 ft | 451 kts | 349° |
| 2026-04-29 09:50 | 35.68350 | -7.85744 | 31954 ft | 450 kts | 349° |
| 2026-04-29 09:51 | 35.75605 | -7.86399 | 31955 ft | 450 kts | 349° |
| 2026-04-29 09:51 | 35.81847 | -7.86962 | 31952 ft | 450 kts | 349° |
| 2026-04-29 09:52 | 35.87076 | -7.87433 | 31951 ft | 450 kts | 349° |
| 2026-04-29 09:52 | 35.93318 | -7.88001 | 31953 ft | 450 kts | 348° |
| 2026-04-29 09:53 | 35.99253 | -7.89682 | 31978 ft | 434 kts | 330° |
| 2026-04-29 09:53 | 36.04677 | -7.92878 | 31954 ft | 432 kts | 327° |
| 2026-04-29 09:54 | 36.10080 | -7.96143 | 31945 ft | 433 kts | 327° |
| 2026-04-29 09:54 | 36.15504 | -7.99381 | 31948 ft | 433 kts | 328° |
| 2026-04-29 09:55 | 36.21129 | -8.02148 | 31940 ft | 444 kts | 341° |
| 2026-04-29 09:55 | 36.27211 | -8.03637 | 31949 ft | 447 kts | 342° |
| 2026-04-29 09:56 | 36.33322 | -8.05067 | 31943 ft | 447 kts | 342° |
| 2026-04-29 09:56 | 36.39422 | -8.06538 | 31937 ft | 446 kts | 342° |
| 2026-04-29 09:57 | 36.45497 | -8.08035 | 31939 ft | 445 kts | 342° |
| 2026-04-29 09:57 | 36.51562 | -8.09544 | 31945 ft | 444 kts | 341° |
| 2026-04-29 09:58 | 36.57621 | -8.11054 | 31939 ft | 444 kts | 341° |
| 2026-04-29 09:58 | 36.63678 | -8.12566 | 31938 ft | 443 kts | 341° |
| 2026-04-29 09:59 | 36.69725 | -8.14077 | 31934 ft | 443 kts | 341° |
| 2026-04-29 09:59 | 36.75734 | -8.15581 | 31939 ft | 444 kts | 341° |
| 2026-04-29 10:00 | 36.81832 | -8.17110 | 31926 ft | 444 kts | 341° |
| 2026-04-29 10:00 | 36.87853 | -8.18622 | 31924 ft | 444 kts | 341° |
| 2026-04-29 10:01 | 36.93915 | -8.20146 | 31922 ft | 445 kts | 341° |
| 2026-04-29 10:01 | 36.99993 | -8.21677 | 31926 ft | 446 kts | 341° |
| 2026-04-29 10:02 | 37.06082 | -8.23213 | 31920 ft | 446 kts | 341° |
| 2026-04-29 10:02 | 37.12172 | -8.24751 | 31923 ft | 447 kts | 341° |
| 2026-04-29 10:03 | 37.18262 | -8.26292 | 31922 ft | 447 kts | 341° |
| 2026-04-29 10:03 | 37.24362 | -8.27839 | 31932 ft | 447 kts | 340° |
| 2026-04-29 10:04 | 37.30465 | -8.29388 | 31924 ft | 447 kts | 340° |
| 2026-04-29 10:04 | 37.36557 | -8.30937 | 31922 ft | 447 kts | 340° |
| 2026-04-29 10:05 | 37.42641 | -8.32487 | 31964 ft | 446 kts | 340° |
| 2026-04-29 10:05 | 37.48728 | -8.34041 | 31928 ft | 446 kts | 340° |
| 2026-04-29 10:06 | 37.54807 | -8.35591 | 31919 ft | 445 kts | 340° |
| 2026-04-29 10:06 | 37.60870 | -8.37144 | 31915 ft | 443 kts | 340° |
| 2026-04-29 10:07 | 37.66865 | -8.38682 | 31950 ft | 442 kts | 339° |
| 2026-04-29 10:07 | 37.72900 | -8.40233 | 31920 ft | 442 kts | 339° |
| 2026-04-29 10:08 | 37.75923 | -8.41013 | 31713 ft | 446 kts | 339° |
| 2026-04-29 10:08 | 37.78962 | -8.41796 | 31465 ft | 444 kts | 339° |
| 2026-04-29 10:08 | 37.81974 | -8.42569 | 31212 ft | 440 kts | 339° |
| 2026-04-29 10:08 | 37.84952 | -8.43332 | 30925 ft | 433 kts | 339° |
| 2026-04-29 10:09 | 37.87889 | -8.44084 | 30468 ft | 428 kts | 339° |
| 2026-04-29 10:09 | 37.90806 | -8.44836 | 29888 ft | 428 kts | 338° |
| 2026-04-29 10:09 | 37.93730 | -8.45596 | 29158 ft | 429 kts | 338° |
| 2026-04-29 10:09 | 37.96644 | -8.46353 | 28548 ft | 426 kts | 338° |
| 2026-04-29 10:10 | 37.99539 | -8.47102 | 28013 ft | 423 kts | 338° |
| 2026-04-29 10:10 | 38.02412 | -8.47845 | 27481 ft | 420 kts | 338° |
| 2026-04-29 10:10 | 38.05262 | -8.48583 | 26941 ft | 417 kts | 339° |
| 2026-04-29 10:10 | 38.08099 | -8.49320 | 26384 ft | 415 kts | 339° |
| 2026-04-29 10:11 | 38.10918 | -8.50053 | 25873 ft | 413 kts | 339° |
| 2026-04-29 10:11 | 38.13725 | -8.50783 | 25362 ft | 410 kts | 339° |
| 2026-04-29 10:11 | 38.16516 | -8.51509 | 24863 ft | 408 kts | 339° |
| 2026-04-29 10:11 | 38.19291 | -8.52232 | 24371 ft | 406 kts | 339° |
| 2026-04-29 10:12 | 38.22054 | -8.52952 | 23892 ft | 404 kts | 339° |
| 2026-04-29 10:12 | 38.24807 | -8.53670 | 23390 ft | 403 kts | 339° |
| 2026-04-29 10:12 | 38.27549 | -8.54387 | 22819 ft | 401 kts | 339° |
| 2026-04-29 10:12 | 38.30268 | -8.55097 | 22302 ft | 398 kts | 339° |
| 2026-04-29 10:13 | 38.32976 | -8.55804 | 21785 ft | 396 kts | 340° |
| 2026-04-29 10:13 | 38.35665 | -8.56508 | 21269 ft | 394 kts | 341° |
| 2026-04-29 10:13 | 38.38357 | -8.57214 | 20715 ft | 394 kts | 341° |
| 2026-04-29 10:13 | 38.41038 | -8.57917 | 20234 ft | 392 kts | 341° |
| 2026-04-29 10:14 | 38.43703 | -8.58615 | 19785 ft | 390 kts | 341° |
| 2026-04-29 10:14 | 38.46352 | -8.59310 | 19334 ft | 387 kts | 341° |
| 2026-04-29 10:14 | 38.48989 | -8.60002 | 18874 ft | 386 kts | 342° |
| 2026-04-29 10:14 | 38.51613 | -8.60691 | 18425 ft | 384 kts | 342° |
| 2026-04-29 10:15 | 38.54222 | -8.61378 | 17948 ft | 382 kts | 342° |
| 2026-04-29 10:15 | 38.56824 | -8.62062 | 17479 ft | 380 kts | 342° |
| 2026-04-29 10:15 | 38.59399 | -8.62740 | 17041 ft | 378 kts | 343° |
| 2026-04-29 10:15 | 38.61968 | -8.63417 | 16575 ft | 376 kts | 344° |
| 2026-04-29 10:16 | 38.64521 | -8.64090 | 16140 ft | 373 kts | 344° |
| 2026-04-29 10:16 | 38.66206 | -8.64535 | 15854 ft | 372 kts | 344° |
| 2026-04-29 10:16 | 38.69581 | -8.65426 | 15299 ft | 369 kts | 344° |
| 2026-04-29 10:16 | 38.72087 | -8.66088 | 14875 ft | 367 kts | 345° |
| 2026-04-29 10:17 | 38.74583 | -8.66749 | 14455 ft | 365 kts | 345° |
| 2026-04-29 10:17 | 38.77060 | -8.67404 | 14050 ft | 362 kts | 345° |
| 2026-04-29 10:17 | 38.79489 | -8.68047 | 13645 ft | 360 kts | 345° |
| 2026-04-29 10:17 | 38.81942 | -8.68697 | 13172 ft | 359 kts | 346° |
| 2026-04-29 10:18 | 38.84378 | -8.69343 | 12731 ft | 357 kts | 346° |
| 2026-04-29 10:18 | 38.86801 | -8.69986 | 12307 ft | 354 kts | 346° |
| 2026-04-29 10:18 | 38.89209 | -8.70625 | 11890 ft | 352 kts | 346° |
| 2026-04-29 10:18 | 38.91603 | -8.71261 | 11471 ft | 350 kts | 346° |
| 2026-04-29 10:19 | 38.93977 | -8.71892 | 11067 ft | 348 kts | 346° |
| 2026-04-29 10:19 | 38.96338 | -8.72520 | 10762 ft | 343 kts | 347° |
| 2026-04-29 10:19 | 38.98665 | -8.73139 | 10519 ft | 341 kts | 347° |
| 2026-04-29 10:19 | 39.00957 | -8.73748 | 10392 ft | 330 kts | 347° |
| 2026-04-29 10:20 | 39.03176 | -8.74339 | 10244 ft | 321 kts | 347° |
| 2026-04-29 10:20 | 39.05336 | -8.74914 | 10111 ft | 312 kts | 347° |
| 2026-04-29 10:20 | 39.07361 | -8.75763 | 9977 ft | 302 kts | 332° |
| 2026-04-29 10:20 | 39.09201 | -8.76985 | 9846 ft | 294 kts | 329° |
| 2026-04-29 10:21 | 39.10989 | -8.78240 | 9557 ft | 292 kts | 329° |
| 2026-04-29 10:21 | 39.12686 | -8.79641 | 9261 ft | 287 kts | 313° |
| 2026-04-29 10:21 | 39.13759 | -8.81711 | 9045 ft | 274 kts | 285° |
| 2026-04-29 10:21 | 39.14094 | -8.84088 | 8689 ft | 270 kts | 271° |
| 2026-04-29 10:22 | 39.14214 | -8.86503 | 8369 ft | 270 kts | 269° |
| 2026-04-29 10:22 | 39.14264 | -8.88907 | 8130 ft | 266 kts | 260° |
| 2026-04-29 10:22 | 39.13595 | -8.91048 | 7845 ft | 258 kts | 229° |
| 2026-04-29 10:22 | 39.12313 | -8.92612 | 7660 ft | 251 kts | 212° |
| 2026-04-29 10:23 | 39.10830 | -8.93735 | 7572 ft | 243 kts | 207° |
| 2026-04-29 10:23 | 39.09355 | -8.94748 | 7372 ft | 239 kts | 207° |
| 2026-04-29 10:23 | 39.07886 | -8.95751 | 7090 ft | 237 kts | 207° |
| 2026-04-29 10:23 | 39.06450 | -8.96742 | 6804 ft | 231 kts | 207° |
| 2026-04-29 10:24 | 39.05074 | -8.97701 | 6657 ft | 219 kts | 207° |
| 2026-04-29 10:24 | 39.03734 | -8.98641 | 6301 ft | 217 kts | 207° |
| 2026-04-29 10:24 | 39.02423 | -8.99566 | 5963 ft | 212 kts | 208° |
| 2026-04-29 10:24 | 39.01152 | -9.00465 | 5591 ft | 205 kts | 208° |
| 2026-04-29 10:25 | 38.99923 | -9.01334 | 5236 ft | 199 kts | 208° |
| 2026-04-29 10:25 | 38.98720 | -9.02183 | 4893 ft | 196 kts | 209° |
| 2026-04-29 10:25 | 38.97538 | -9.03051 | 4490 ft | 195 kts | 212° |
| 2026-04-29 10:25 | 38.96326 | -9.03858 | 4009 ft | 198 kts | 203° |
| 2026-04-29 10:26 | 38.95060 | -9.04530 | 3716 ft | 195 kts | 203° |
| 2026-04-29 10:26 | 38.93830 | -9.05180 | 3440 ft | 188 kts | 202° |
| 2026-04-29 10:26 | 38.92651 | -9.05808 | 3204 ft | 180 kts | 204° |
| 2026-04-29 10:26 | 38.91518 | -9.06415 | 2959 ft | 173 kts | 203° |
| 2026-04-29 10:27 | 38.89424 | -9.07535 | 2531 ft | 151 kts | 205° |
| 2026-04-29 10:27 | 38.88495 | -9.08035 | 2324 ft | 145 kts | 205° |
| 2026-04-29 10:27 | 38.87565 | -9.08533 | 2146 ft | 146 kts | 205° |
| 2026-04-29 10:28 | 38.86614 | -9.09045 | 1953 ft | 150 kts | 204° |
| 2026-04-29 10:28 | 38.85653 | -9.09559 | 1731 ft | 150 kts | 204° |
| 2026-04-29 10:28 | 38.84708 | -9.10064 | 1526 ft | 143 kts | 205° |
| 2026-04-29 10:28 | 38.83800 | -9.10551 | 1332 ft | 143 kts | 204° |
| 2026-04-29 10:29 | 38.82871 | -9.11041 | 1151 ft | 145 kts | 203° |
| 2026-04-29 10:29 | 38.81924 | -9.11563 | 977 ft | 151 kts | 205° |
| 2026-04-29 10:29 | 38.80956 | -9.12099 | 720 ft | 152 kts | 212° |
| 2026-04-29 10:29 | 38.80008 | -9.12616 | 743 ft | 146 kts | 209° |
| 2026-04-29 10:30 | 38.79175 | -9.13207 | 1085 ft | 137 kts | 218° |
| 2026-04-29 10:30 | 38.78317 | -9.13865 | 1235 ft | 145 kts | 211° |
| 2026-04-29 10:30 | 38.77418 | -9.14498 | 1441 ft | 153 kts | 216° |
| 2026-04-29 10:30 | 38.76500 | -9.15244 | 1709 ft | 159 kts | 214° |
| 2026-04-29 10:31 | 38.75546 | -9.15939 | 2115 ft | 156 kts | 213° |
| 2026-04-29 10:31 | 38.74575 | -9.16605 | 2607 ft | 160 kts | 214° |
| 2026-04-29 10:31 | 38.73581 | -9.17338 | 2998 ft | 169 kts | 216° |
| 2026-04-29 10:31 | 38.72756 | -9.18497 | 3209 ft | 186 kts | 247° |
| 2026-04-29 10:32 | 38.72531 | -9.20081 | 3784 ft | 184 kts | 281° |
| 2026-04-29 10:32 | 38.73215 | -9.21590 | 3720 ft | 218 kts | 312° |
| 2026-04-29 10:32 | 38.74431 | -9.22902 | 3739 ft | 220 kts | 317° |
| 2026-04-29 10:32 | 38.75516 | -9.24039 | 4620 ft | 210 kts | 317° |
| 2026-04-29 10:33 | 38.76997 | -9.24989 | 4266 ft | 262 kts | 346° |
| 2026-04-29 10:33 | 38.78855 | -9.25143 | 4084 ft | 268 kts | 358° |
| 2026-04-29 10:33 | 38.80681 | -9.25147 | 3993 ft | 257 kts | 359° |
| 2026-04-29 10:33 | 38.82425 | -9.25125 | 3993 ft | 247 kts | 0° |
| 2026-04-29 10:34 | 38.84076 | -9.24584 | 4009 ft | 246 kts | 24° |
| 2026-04-29 10:34 | 38.85622 | -9.23641 | 4009 ft | 249 kts | 23° |
| 2026-04-29 10:34 | 38.87212 | -9.22685 | 4008 ft | 254 kts | 23° |
| 2026-04-29 10:34 | 38.88826 | -9.21714 | 4011 ft | 258 kts | 24° |
| 2026-04-29 10:35 | 38.90448 | -9.20730 | 4003 ft | 257 kts | 24° |
| 2026-04-29 10:35 | 38.92037 | -9.19775 | 3983 ft | 246 kts | 24° |
| 2026-04-29 10:35 | 38.93556 | -9.18863 | 3983 ft | 237 kts | 24° |
| 2026-04-29 10:35 | 38.95042 | -9.17973 | 3985 ft | 235 kts | 24° |
| 2026-04-29 10:36 | 38.96536 | -9.17077 | 4011 ft | 242 kts | 24° |
| 2026-04-29 10:36 | 38.98072 | -9.16159 | 4010 ft | 243 kts | 24° |
| 2026-04-29 10:36 | 38.99394 | -9.14862 | 3993 ft | 240 kts | 58° |
| 2026-04-29 10:36 | 38.99789 | -9.12895 | 4012 ft | 223 kts | 100° |
| 2026-04-29 10:37 | 38.99154 | -9.11199 | 4026 ft | 209 kts | 132° |
| 2026-04-29 10:37 | 38.98441 | -9.09566 | 4002 ft | 211 kts | 111° |
| 2026-04-29 10:37 | 38.97942 | -9.07805 | 4002 ft | 209 kts | 113° |
| 2026-04-29 10:37 | 38.97382 | -9.06098 | 4007 ft | 207 kts | 123° |
| 2026-04-29 10:38 | 38.96301 | -9.04952 | 3828 ft | 203 kts | 167° |
| 2026-04-29 10:38 | 38.94921 | -9.05036 | 3646 ft | 201 kts | 197° |
| 2026-04-29 10:38 | 38.93580 | -9.05529 | 3380 ft | 199 kts | 196° |
| 2026-04-29 10:38 | 38.92707 | -9.05863 | 3211 ft | 195 kts | 199° |
| 2026-04-29 10:39 | 38.91445 | -9.06463 | 2944 ft | 191 kts | 202° |
| 2026-04-29 10:39 | 38.90230 | -9.07103 | 2683 ft | 186 kts | 204° |
| 2026-04-29 10:39 | 38.89056 | -9.07732 | 2460 ft | 182 kts | 204° |
| 2026-04-29 10:39 | 38.87909 | -9.08349 | 2199 ft | 175 kts | 205° |
| 2026-04-29 10:40 | 38.86794 | -9.08946 | 1974 ft | 172 kts | 204° |
| 2026-04-29 10:40 | 38.85709 | -9.09528 | 1736 ft | 164 kts | 204° |
| 2026-04-29 10:40 | 38.84695 | -9.10071 | 1518 ft | 150 kts | 204° |
| 2026-04-29 10:40 | 38.83769 | -9.10568 | 1352 ft | 147 kts | 204° |
| 2026-04-29 10:41 | 38.82814 | -9.11064 | 1136 ft | 146 kts | 204° |
| 2026-04-29 10:41 | 38.81885 | -9.11571 | 931 ft | 144 kts | 203° |
| 2026-04-29 10:41 | 38.80983 | -9.12061 | 759 ft | 139 kts | 213° |
| 2026-04-29 10:41 | 38.80089 | -9.12561 | 582 ft | 141 kts | 202° |
| 2026-04-29 10:42 | 38.79176 | -9.13029 | 384 ft | 139 kts | 204° |
| 2026-04-29 10:42 | 38.78365 | -9.13466 | 366 ft | 109 kts | 203° |
| 2026-04-29 10:42 | 38.77748 | -9.13803 | 364 ft | 76 kts | 203° |
| 2026-04-29 10:42 | 38.77352 | -9.13896 | 357 ft | 36 kts | 177° |
| 2026-04-29 10:43 | 38.77266 | -9.13883 | 360 ft | 0 kts | 152° |
| 2026-04-29 10:46 | 38.77253 | -9.13874 | 360 ft | 5 kts | 144° |
| 2026-04-29 10:46 | 38.77243 | -9.13815 | 352 ft | 8 kts | 82° |
| 2026-04-29 10:47 | 38.77257 | -9.13737 | 354 ft | 9 kts | 81° |
| 2026-04-29 10:47 | 38.77270 | -9.13655 | 350 ft | 10 kts | 79° |
| 2026-04-29 10:47 | 38.77285 | -9.13563 | 348 ft | 11 kts | 78° |
| 2026-04-29 10:47 | 38.77303 | -9.13453 | 344 ft | 14 kts | 78° |
| 2026-04-29 10:48 | 38.77325 | -9.13317 | 337 ft | 17 kts | 73° |
| 2026-04-29 10:48 | 38.77422 | -9.13275 | 334 ft | 17 kts | 347° |
| 2026-04-29 10:48 | 38.77532 | -9.13307 | 335 ft | 16 kts | 347° |
| 2026-04-29 10:48 | 38.77640 | -9.13319 | 333 ft | 15 kts | 356° |
| 2026-04-29 10:49 | 38.77726 | -9.13308 | 336 ft | 12 kts | 46° |
| 2026-04-29 10:49 | 38.77751 | -9.13207 | 334 ft | 12 kts | 79° |
| 2026-04-29 10:49 | 38.77761 | -9.13145 | 336 ft | 0 kts | 78° |
| 2026-04-29 10:49 | 38.77763 | -9.13135 | 336 ft | 3 kts | 78° |
| 2026-04-29 10:50 | 38.77766 | -9.13103 | 336 ft | 4 kts | 91° |
| 2026-04-29 10:50 | 38.77738 | -9.13097 | 336 ft | 5 kts | 189° |
| 2026-04-29 10:50 | 38.77705 | -9.13104 | 335 ft | 5 kts | 188° |
| 2026-04-29 10:50 | 38.77686 | -9.13107 | 333 ft | 0 kts | 187° |
| 2026-04-29 10:51 | 38.77684 | -9.13107 | 333 ft | 1 kts | 187° |
| 2026-04-29 10:51 | 38.77682 | -9.13108 | 333 ft | 0 kts | 187° |